createdAt,value
2019-01-06T00:00:24.366Z,18.15
2019-01-06T00:01:24.621Z,18.15
2019-01-06T00:02:24.740Z,18.15
2019-01-06T00:03:24.365Z,18.15
2019-01-06T00:04:24.965Z,18.13
2019-01-06T00:05:24.497Z,18.13
2019-01-06T00:06:24.399Z,18.15
2019-01-06T00:07:24.300Z,18.11
2019-01-06T00:08:24.354Z,18.11
2019-01-06T00:09:24.594Z,18.12
2019-01-06T00:10:24.773Z,18.11
2019-01-06T00:11:24.453Z,18.12
2019-01-06T00:12:24.480Z,18.11
2019-01-06T00:13:24.499Z,18.11
2019-01-06T00:14:24.425Z,18.09
2019-01-06T00:15:24.291Z,18.11
2019-01-06T00:16:24.797Z,18.08
2019-01-06T00:17:24.490Z,18.09
2019-01-06T00:18:24.428Z,18.08
2019-01-06T00:19:24.266Z,18.08
2019-01-06T00:20:24.537Z,18.08
2019-01-06T00:21:24.451Z,18.09
2019-01-06T00:22:24.226Z,18.07
2019-01-06T00:23:24.404Z,18.07
2019-01-06T00:24:24.170Z,18.07
2019-01-06T00:25:24.356Z,18.08
2019-01-06T00:26:24.218Z,18.07
2019-01-06T00:27:24.396Z,18.05
2019-01-06T00:28:24.776Z,18.07
2019-01-06T00:29:24.600Z,18.05
2019-01-06T00:30:24.327Z,18.04
2019-01-06T00:31:24.432Z,18.01
2019-01-06T00:32:24.569Z,18.05
2019-01-06T00:33:24.506Z,18.04
2019-01-06T00:34:24.404Z,18.04
2019-01-06T00:35:24.313Z,18.04
2019-01-06T00:36:24.282Z,18.04
2019-01-06T00:37:24.274Z,18.02
2019-01-06T00:38:24.389Z,18.01
2019-01-06T00:39:24.382Z,18.02
2019-01-06T00:40:24.806Z,18
2019-01-06T00:41:24.438Z,18
2019-01-06T00:42:24.417Z,18.01
2019-01-06T00:43:24.600Z,18.02
2019-01-06T00:44:25.350Z,18.01
2019-01-06T00:45:24.920Z,18
2019-01-06T00:46:24.291Z,18
2019-01-06T00:47:24.909Z,18
2019-01-06T00:48:24.165Z,18
2019-01-06T00:49:24.474Z,17.98
2019-01-06T00:50:24.199Z,17.97
2019-01-06T00:51:24.710Z,17.98
2019-01-06T00:52:24.306Z,17.97
2019-01-06T00:53:24.292Z,17.97
2019-01-06T00:54:24.431Z,17.95
2019-01-06T00:55:24.406Z,17.97
2019-01-06T00:56:24.257Z,17.98
2019-01-06T00:57:24.601Z,17.97
2019-01-06T00:58:24.397Z,17.95
2019-01-06T00:59:24.603Z,17.94
2019-01-06T01:00:24.182Z,17.97
2019-01-06T01:01:24.370Z,17.94
2019-01-06T01:02:24.841Z,17.94
2019-01-06T01:03:24.458Z,17.93
2019-01-06T01:04:24.769Z,17.94
2019-01-06T01:05:24.278Z,17.93
2019-01-06T01:06:24.703Z,17.91
2019-01-06T01:07:24.463Z,17.93
2019-01-06T01:08:24.685Z,17.91
2019-01-06T01:09:24.360Z,17.91
2019-01-06T01:10:24.697Z,17.93
2019-01-06T01:11:24.705Z,17.93
2019-01-06T01:12:24.279Z,17.93
2019-01-06T01:13:25.255Z,17.93
2019-01-06T01:14:24.306Z,17.91
2019-01-06T01:15:24.649Z,17.91
2019-01-06T01:16:24.358Z,17.89
2019-01-06T01:17:24.412Z,17.89
2019-01-06T01:18:24.364Z,17.88
2019-01-06T01:19:24.107Z,17.93
2019-01-06T01:20:24.337Z,17.89
2019-01-06T01:21:24.352Z,17.91
2019-01-06T01:22:24.217Z,17.91
2019-01-06T01:23:24.560Z,17.88
2019-01-06T01:24:24.383Z,17.87
2019-01-06T01:25:24.573Z,17.87
2019-01-06T01:26:24.214Z,17.89
2019-01-06T01:27:24.452Z,17.88
2019-01-06T01:28:24.558Z,17.87
2019-01-06T01:29:24.263Z,17.87
2019-01-06T01:30:24.294Z,17.84
2019-01-06T01:31:24.194Z,17.85
2019-01-06T01:32:24.430Z,17.84
2019-01-06T01:33:24.510Z,17.82
2019-01-06T01:34:24.223Z,17.84
2019-01-06T01:35:24.565Z,17.84
2019-01-06T01:36:24.516Z,17.84
2019-01-06T01:37:24.703Z,17.84
2019-01-06T01:38:24.477Z,17.81
2019-01-06T01:39:24.745Z,17.82
2019-01-06T01:40:25.261Z,17.81
2019-01-06T01:41:24.153Z,17.82
2019-01-06T01:42:24.679Z,17.82
2019-01-06T01:43:24.235Z,17.82
2019-01-06T01:44:25.253Z,17.8
2019-01-06T01:45:24.324Z,17.8
2019-01-06T01:46:24.287Z,17.81
2019-01-06T01:47:24.483Z,17.81
2019-01-06T01:48:24.632Z,17.78
2019-01-06T01:49:24.364Z,17.8
2019-01-06T01:50:24.363Z,17.78
2019-01-06T01:51:24.256Z,17.8
2019-01-06T01:52:24.396Z,17.8
2019-01-06T01:53:24.164Z,17.8
2019-01-06T01:54:24.733Z,17.77
2019-01-06T01:55:24.933Z,17.78
2019-01-06T01:56:24.310Z,17.77
2019-01-06T01:57:24.796Z,17.76
2019-01-06T01:58:24.282Z,17.77
2019-01-06T01:59:24.364Z,17.77
2019-01-06T02:00:24.899Z,17.77
2019-01-06T02:01:24.479Z,17.78
2019-01-06T02:02:24.401Z,17.74
2019-01-06T02:03:24.616Z,17.76
2019-01-06T02:04:24.828Z,17.73
2019-01-06T02:05:25.249Z,17.76
2019-01-06T02:06:24.406Z,17.73
2019-01-06T02:07:24.189Z,17.76
2019-01-06T02:08:24.625Z,17.76
2019-01-06T02:09:24.085Z,17.73
2019-01-06T02:10:24.705Z,17.73
2019-01-06T02:11:24.371Z,17.71
2019-01-06T02:12:24.289Z,17.7
2019-01-06T02:13:24.789Z,17.73
2019-01-06T02:14:24.447Z,17.71
2019-01-06T02:15:24.384Z,17.73
2019-01-06T02:16:24.379Z,17.7
2019-01-06T02:17:24.303Z,17.7
2019-01-06T02:18:24.614Z,17.7
2019-01-06T02:19:24.286Z,17.7
2019-01-06T02:20:24.179Z,17.7
2019-01-06T02:21:24.082Z,17.7
2019-01-06T02:22:24.245Z,17.68
2019-01-06T02:23:25.023Z,17.68
2019-01-06T02:24:25.107Z,17.68
2019-01-06T02:25:24.707Z,17.67
2019-01-06T02:26:24.612Z,17.68
2019-01-06T02:27:24.570Z,17.67
2019-01-06T02:28:24.530Z,17.67
2019-01-06T02:29:25.165Z,17.67
2019-01-06T02:30:24.781Z,17.67
2019-01-06T02:31:24.251Z,17.67
2019-01-06T02:32:24.297Z,17.67
2019-01-06T02:33:24.554Z,17.67
2019-01-06T02:34:24.367Z,17.66
2019-01-06T02:35:24.570Z,17.66
2019-01-06T02:36:24.746Z,17.64
2019-01-06T02:37:24.288Z,17.64
2019-01-06T02:38:24.285Z,17.67
2019-01-06T02:39:24.575Z,17.63
2019-01-06T02:40:24.268Z,17.66
2019-01-06T02:41:24.755Z,17.63
2019-01-06T02:42:24.416Z,17.63
2019-01-06T02:43:24.740Z,17.66
2019-01-06T02:44:24.387Z,17.64
2019-01-06T02:45:24.106Z,17.63
2019-01-06T02:46:24.368Z,17.63
2019-01-06T02:47:25.506Z,17.61
2019-01-06T02:48:24.519Z,17.63
2019-01-06T02:49:24.324Z,17.61
2019-01-06T02:50:24.767Z,17.63
2019-01-06T02:51:24.314Z,17.63
2019-01-06T02:52:24.225Z,17.63
2019-01-06T02:53:24.401Z,17.64
2019-01-06T02:54:24.288Z,17.63
2019-01-06T02:55:24.161Z,17.63
2019-01-06T02:56:24.560Z,17.61
2019-01-06T02:57:24.255Z,17.59
2019-01-06T02:58:24.424Z,17.63
2019-01-06T02:59:24.551Z,17.63
2019-01-06T03:00:24.133Z,17.63
2019-01-06T03:01:24.545Z,17.63
2019-01-06T03:02:24.394Z,17.6
2019-01-06T03:03:24.250Z,17.6
2019-01-06T03:04:24.513Z,17.57
2019-01-06T03:05:24.192Z,17.59
2019-01-06T03:06:24.383Z,17.6
2019-01-06T03:07:24.626Z,17.59
2019-01-06T03:08:24.769Z,17.59
2019-01-06T03:09:24.137Z,17.59
2019-01-06T03:10:24.431Z,17.59
2019-01-06T03:11:24.713Z,17.57
2019-01-06T03:12:24.241Z,17.56
2019-01-06T03:13:24.321Z,17.57
2019-01-06T03:14:24.281Z,17.54
2019-01-06T03:15:24.553Z,17.56
2019-01-06T03:16:24.805Z,17.56
2019-01-06T03:17:24.504Z,17.56
2019-01-06T03:18:24.271Z,17.56
2019-01-06T03:19:24.071Z,17.54
2019-01-06T03:20:24.647Z,17.57
2019-01-06T03:21:24.567Z,17.54
2019-01-06T03:22:24.784Z,17.56
2019-01-06T03:23:24.770Z,17.56
2019-01-06T03:24:24.636Z,17.53
2019-01-06T03:25:24.247Z,17.54
2019-01-06T03:26:24.707Z,17.52
2019-01-06T03:27:25.003Z,17.53
2019-01-06T03:28:24.474Z,17.52
2019-01-06T03:29:24.824Z,17.54
2019-01-06T03:30:24.817Z,17.52
2019-01-06T03:31:24.649Z,17.53
2019-01-06T03:32:24.787Z,17.52
2019-01-06T03:33:24.216Z,17.52
2019-01-06T03:34:24.288Z,17.53
2019-01-06T03:35:24.728Z,17.5
2019-01-06T03:36:24.160Z,17.52
2019-01-06T03:37:24.695Z,17.52
2019-01-06T03:38:24.188Z,17.5
2019-01-06T03:39:24.910Z,17.49
2019-01-06T03:40:24.540Z,17.5
2019-01-06T03:41:24.203Z,17.49
2019-01-06T03:42:24.379Z,17.49
2019-01-06T03:43:24.120Z,17.49
2019-01-06T03:44:24.715Z,17.5
2019-01-06T03:45:24.222Z,17.49
2019-01-06T03:46:24.457Z,17.48
2019-01-06T03:47:24.617Z,17.49
2019-01-06T03:48:24.469Z,17.46
2019-01-06T03:49:25.122Z,17.49
2019-01-06T03:50:24.336Z,17.48
2019-01-06T03:51:24.747Z,17.48
2019-01-06T03:52:24.317Z,17.45
2019-01-06T03:53:24.145Z,17.46
2019-01-06T03:54:25.052Z,17.48
2019-01-06T03:55:24.572Z,17.49
2019-01-06T03:56:25.186Z,17.46
2019-01-06T03:57:24.420Z,17.48
2019-01-06T03:58:25.074Z,17.46
2019-01-06T03:59:24.066Z,17.46
2019-01-06T04:00:24.231Z,17.46
2019-01-06T04:01:24.308Z,17.46
2019-01-06T04:02:24.181Z,17.45
2019-01-06T04:03:24.350Z,17.45
2019-01-06T04:04:24.395Z,17.45
2019-01-06T04:05:24.686Z,17.45
2019-01-06T04:06:24.546Z,17.45
2019-01-06T04:07:24.240Z,17.43
2019-01-06T04:08:24.223Z,17.45
2019-01-06T04:09:24.538Z,17.43
2019-01-06T04:10:24.793Z,17.42
2019-01-06T04:11:24.457Z,17.42
2019-01-06T04:12:24.524Z,17.4
2019-01-06T04:13:24.412Z,17.4
2019-01-06T04:14:25.012Z,17.4
2019-01-06T04:15:24.674Z,17.42
2019-01-06T04:16:24.766Z,17.42
2019-01-06T04:17:24.250Z,17.42
2019-01-06T04:18:24.677Z,17.43
2019-01-06T04:19:24.346Z,17.42
2019-01-06T04:20:24.408Z,17.4
2019-01-06T04:21:24.101Z,17.4
2019-01-06T04:22:24.675Z,17.39
2019-01-06T04:23:24.399Z,17.39
2019-01-06T04:24:24.425Z,17.39
2019-01-06T04:25:24.648Z,17.4
2019-01-06T04:26:24.338Z,17.39
2019-01-06T04:27:24.363Z,17.39
2019-01-06T04:28:24.416Z,17.38
2019-01-06T04:29:24.522Z,17.39
2019-01-06T04:30:24.354Z,17.38
2019-01-06T04:31:24.505Z,17.4
2019-01-06T04:32:24.317Z,17.4
2019-01-06T04:33:24.403Z,17.39
2019-01-06T04:34:24.723Z,17.38
2019-01-06T04:35:24.626Z,17.39
2019-01-06T04:36:24.212Z,17.39
2019-01-06T04:37:24.194Z,17.38
2019-01-06T04:38:24.155Z,17.38
2019-01-06T04:39:24.323Z,17.39
2019-01-06T04:40:24.720Z,17.39
2019-01-06T04:41:24.238Z,17.36
2019-01-06T04:42:24.659Z,17.39
2019-01-06T04:43:24.301Z,17.38
2019-01-06T04:44:24.329Z,17.38
2019-01-06T04:45:24.312Z,17.39
2019-01-06T04:46:24.380Z,17.38
2019-01-06T04:47:24.298Z,17.4
2019-01-06T04:48:24.570Z,17.39
2019-01-06T04:49:24.297Z,17.39
2019-01-06T04:50:24.175Z,17.4
2019-01-06T04:51:24.295Z,17.42
2019-01-06T04:52:24.548Z,17.42
2019-01-06T04:53:24.232Z,17.43
2019-01-06T04:54:24.611Z,17.43
2019-01-06T04:55:24.216Z,17.43
2019-01-06T04:56:24.388Z,17.45
2019-01-06T04:57:24.115Z,17.46
2019-01-06T04:58:24.242Z,17.49
2019-01-06T04:59:25.293Z,17.5
2019-01-06T05:00:24.767Z,17.53
2019-01-06T05:01:24.735Z,17.5
2019-01-06T05:02:24.479Z,17.53
2019-01-06T05:03:24.254Z,17.59
2019-01-06T05:04:25.062Z,17.59
2019-01-06T05:05:24.473Z,17.63
2019-01-06T05:06:24.799Z,17.63
2019-01-06T05:07:24.650Z,17.64
2019-01-06T05:08:24.288Z,17.7
2019-01-06T05:09:24.182Z,17.7
2019-01-06T05:10:24.329Z,17.71
2019-01-06T05:11:25.198Z,17.74
2019-01-06T05:12:24.556Z,17.73
2019-01-06T05:13:24.217Z,17.77
2019-01-06T05:14:24.191Z,17.78
2019-01-06T05:15:24.161Z,17.78
2019-01-06T05:16:24.123Z,17.8
2019-01-06T05:17:24.351Z,17.82
2019-01-06T05:18:24.656Z,17.82
2019-01-06T05:19:24.071Z,17.85
2019-01-06T05:20:24.274Z,17.88
2019-01-06T05:21:24.202Z,17.88
2019-01-06T05:22:24.283Z,17.91
2019-01-06T05:23:25.059Z,17.95
2019-01-06T05:24:24.134Z,17.95
2019-01-06T05:25:24.503Z,17.95
2019-01-06T05:26:24.948Z,17.97
2019-01-06T05:27:24.219Z,17.97
2019-01-06T05:28:24.745Z,18
2019-01-06T05:29:24.294Z,18.01
2019-01-06T05:30:24.168Z,18.05
2019-01-06T05:31:24.196Z,18.05
2019-01-06T05:32:25.115Z,18.07
2019-01-06T05:33:24.460Z,18.07
2019-01-06T05:34:25.150Z,18.09
2019-01-06T05:35:24.697Z,18.09
2019-01-06T05:36:24.225Z,18.11
2019-01-06T05:37:24.714Z,18.15
2019-01-06T05:38:24.548Z,18.16
2019-01-06T05:39:24.144Z,18.16
2019-01-06T05:40:24.555Z,18.16
2019-01-06T05:41:24.245Z,18.19
2019-01-06T05:42:24.401Z,18.21
2019-01-06T05:43:24.727Z,18.21
2019-01-06T05:44:24.638Z,18.22
2019-01-06T05:45:24.051Z,18.23
2019-01-06T05:46:24.427Z,18.25
2019-01-06T05:47:25.265Z,18.28
2019-01-06T05:48:24.198Z,18.28
2019-01-06T05:49:24.448Z,18.29
2019-01-06T05:50:24.580Z,18.29
2019-01-06T05:51:24.175Z,18.3
2019-01-06T05:52:24.075Z,18.3
2019-01-06T05:53:24.139Z,18.36
2019-01-06T05:54:24.274Z,18.33
2019-01-06T05:55:24.191Z,18.37
2019-01-06T05:56:24.465Z,18.36
2019-01-06T05:57:24.087Z,18.35
2019-01-06T05:58:24.577Z,18.37
2019-01-06T05:59:24.250Z,18.39
2019-01-06T06:00:24.315Z,18.41
2019-01-06T06:01:24.333Z,18.43
2019-01-06T06:02:24.225Z,18.46
2019-01-06T06:03:24.329Z,18.44
2019-01-06T06:04:24.228Z,18.44
2019-01-06T06:05:24.086Z,18.49
2019-01-06T06:06:24.332Z,18.47
2019-01-06T06:07:24.010Z,18.51
2019-01-06T06:08:24.237Z,18.51
2019-01-06T06:09:24.231Z,18.51
2019-01-06T06:10:24.170Z,18.53
2019-01-06T06:11:24.472Z,18.53
2019-01-06T06:12:24.567Z,18.54
2019-01-06T06:13:24.431Z,18.58
2019-01-06T06:14:24.413Z,18.57
2019-01-06T06:15:24.414Z,18.6
2019-01-06T06:16:24.651Z,18.58
2019-01-06T06:17:24.065Z,18.62
2019-01-06T06:18:24.235Z,18.63
2019-01-06T06:19:24.057Z,18.63
2019-01-06T06:20:24.351Z,18.63
2019-01-06T06:21:24.258Z,18.63
2019-01-06T06:22:24.369Z,18.64
2019-01-06T06:23:24.272Z,18.7
2019-01-06T06:24:24.024Z,18.68
2019-01-06T06:25:24.137Z,18.68
2019-01-06T06:26:24.344Z,18.7
2019-01-06T06:27:24.086Z,18.7
2019-01-06T06:28:24.275Z,18.7
2019-01-06T06:29:24.272Z,18.74
2019-01-06T06:30:24.334Z,18.73
2019-01-06T06:31:24.444Z,18.75
2019-01-06T06:32:24.134Z,18.74
2019-01-06T06:33:24.320Z,18.77
2019-01-06T06:34:24.033Z,18.75
2019-01-06T06:35:24.266Z,18.77
2019-01-06T06:36:24.110Z,18.78
2019-01-06T06:37:24.264Z,18.77
2019-01-06T06:38:24.427Z,18.78
2019-01-06T06:39:24.142Z,18.78
2019-01-06T06:40:24.457Z,18.78
2019-01-06T06:41:24.298Z,18.8
2019-01-06T06:42:24.400Z,18.81
2019-01-06T06:43:24.276Z,18.8
2019-01-06T06:44:24.455Z,18.81
2019-01-06T06:45:24.915Z,18.81
2019-01-06T06:46:24.620Z,18.8
2019-01-06T06:47:25.068Z,18.83
2019-01-06T06:48:24.442Z,18.83
2019-01-06T06:49:24.439Z,18.83
2019-01-06T06:50:24.284Z,18.85
2019-01-06T06:51:24.036Z,18.81
2019-01-06T06:52:24.479Z,18.81
2019-01-06T06:53:24.541Z,18.84
2019-01-06T06:54:24.416Z,18.85
2019-01-06T06:55:24.476Z,18.83
2019-01-06T06:56:24.246Z,18.87
2019-01-06T06:57:24.153Z,18.85
2019-01-06T06:58:24.205Z,18.87
2019-01-06T06:59:24.225Z,18.87
2019-01-06T07:00:24.363Z,18.87
2019-01-06T07:01:24.351Z,18.85
2019-01-06T07:02:25.189Z,18.9
2019-01-06T07:03:24.279Z,18.87
2019-01-06T07:04:24.127Z,18.88
2019-01-06T07:05:24.099Z,18.87
2019-01-06T07:06:24.554Z,18.88
2019-01-06T07:07:23.987Z,18.9
2019-01-06T07:08:24.478Z,18.91
2019-01-06T07:09:24.610Z,18.9
2019-01-06T07:10:24.390Z,18.92
2019-01-06T07:11:24.294Z,18.91
2019-01-06T07:12:23.965Z,18.91
2019-01-06T07:13:24.309Z,18.92
2019-01-06T07:14:24.274Z,18.94
2019-01-06T07:15:24.306Z,18.94
2019-01-06T07:16:24.296Z,18.92
2019-01-06T07:17:24.206Z,18.94
2019-01-06T07:18:24.264Z,18.94
2019-01-06T07:19:24.271Z,18.94
2019-01-06T07:20:24.124Z,18.95
2019-01-06T07:21:24.149Z,18.97
2019-01-06T07:22:24.147Z,18.99
2019-01-06T07:23:24.171Z,18.99
2019-01-06T07:24:24.583Z,18.98
2019-01-06T07:25:24.031Z,18.98
2019-01-06T07:26:24.440Z,19.01
2019-01-06T07:27:24.360Z,19.01
2019-01-06T07:28:25.079Z,19.01
2019-01-06T07:29:23.997Z,19.02
2019-01-06T07:30:24.111Z,19.03
2019-01-06T07:31:24.536Z,19.03
2019-01-06T07:32:24.184Z,19.02
2019-01-06T07:33:24.462Z,19.02
2019-01-06T07:34:24.047Z,19.05
2019-01-06T07:35:24.496Z,19.05
2019-01-06T07:36:24.724Z,19.09
2019-01-06T07:37:24.219Z,19.06
2019-01-06T07:38:24.223Z,19.08
2019-01-06T07:39:24.457Z,19.09
2019-01-06T07:40:24.344Z,19.08
2019-01-06T07:41:24.311Z,19.06
2019-01-06T07:42:24.356Z,19.08
2019-01-06T07:43:24.606Z,19.09
2019-01-06T07:44:24.282Z,19.11
2019-01-06T07:45:24.449Z,19.11
2019-01-06T07:46:24.062Z,19.13
2019-01-06T07:47:24.241Z,19.12
2019-01-06T07:48:24.159Z,19.12
2019-01-06T07:49:24.065Z,19.15
2019-01-06T07:50:24.584Z,19.13
2019-01-06T07:51:24.130Z,19.15
2019-01-06T07:52:24.186Z,19.13
2019-01-06T07:53:24.778Z,19.13
2019-01-06T07:54:24.073Z,19.15
2019-01-06T07:55:24.303Z,19.16
2019-01-06T07:56:24.100Z,19.16
2019-01-06T07:57:24.166Z,19.16
2019-01-06T07:58:24.366Z,19.19
2019-01-06T07:59:24.018Z,19.19
2019-01-06T08:00:24.253Z,19.18
2019-01-06T08:01:24.589Z,19.19
2019-01-06T08:02:24.376Z,19.22
2019-01-06T08:03:24.297Z,19.22
2019-01-06T08:04:24.530Z,19.19
2019-01-06T08:05:24.130Z,19.22
2019-01-06T08:06:24.166Z,19.19
2019-01-06T08:07:24.310Z,19.2
2019-01-06T08:08:24.175Z,19.19
2019-01-06T08:09:24.092Z,19.2
2019-01-06T08:10:24.272Z,19.19
2019-01-06T08:11:24.189Z,19.22
2019-01-06T08:12:24.231Z,19.23
2019-01-06T08:13:24.048Z,19.2
2019-01-06T08:14:24.270Z,19.2
2019-01-06T08:15:24.201Z,19.23
2019-01-06T08:16:24.195Z,19.25
2019-01-06T08:17:24.377Z,19.23
2019-01-06T08:18:24.078Z,19.25
2019-01-06T08:19:24.450Z,19.23
2019-01-06T08:20:24.087Z,19.25
2019-01-06T08:21:24.300Z,19.23
2019-01-06T08:22:24.202Z,19.23
2019-01-06T08:23:24.175Z,19.26
2019-01-06T08:24:24.151Z,19.26
2019-01-06T08:25:24.061Z,19.26
2019-01-06T08:26:24.362Z,19.26
2019-01-06T08:27:23.933Z,19.26
2019-01-06T08:28:24.761Z,19.27
2019-01-06T08:29:24.251Z,19.27
2019-01-06T08:30:24.460Z,19.29
2019-01-06T08:31:24.399Z,19.27
2019-01-06T08:32:24.052Z,19.3
2019-01-06T08:33:25.137Z,19.27
2019-01-06T08:34:24.273Z,19.3
2019-01-06T08:35:24.402Z,19.27
2019-01-06T08:36:24.227Z,19.3
2019-01-06T08:37:24.108Z,19.3
2019-01-06T08:38:24.250Z,19.29
2019-01-06T08:39:24.568Z,19.32
2019-01-06T08:40:24.366Z,19.33
2019-01-06T08:41:24.481Z,19.3
2019-01-06T08:42:24.573Z,19.3
2019-01-06T08:43:24.209Z,19.32
2019-01-06T08:44:23.983Z,19.29
2019-01-06T08:45:24.473Z,19.3
2019-01-06T08:46:24.741Z,19.32
2019-01-06T08:47:24.256Z,19.32
2019-01-06T08:48:24.443Z,19.32
2019-01-06T08:49:24.399Z,19.33
2019-01-06T08:50:24.068Z,19.33
2019-01-06T08:51:24.540Z,19.35
2019-01-06T08:52:24.514Z,19.35
2019-01-06T08:53:24.240Z,19.33
2019-01-06T08:54:23.954Z,19.37
2019-01-06T08:55:24.558Z,19.35
2019-01-06T08:56:24.357Z,19.36
2019-01-06T08:57:24.358Z,19.35
2019-01-06T08:58:24.209Z,19.35
2019-01-06T08:59:24.048Z,19.36
2019-01-06T09:00:24.216Z,19.39
2019-01-06T09:01:24.132Z,19.37
2019-01-06T09:02:24.127Z,19.37
2019-01-06T09:03:24.527Z,19.37
2019-01-06T09:04:24.299Z,19.37
2019-01-06T09:05:24.172Z,19.39
2019-01-06T09:06:24.321Z,19.37
2019-01-06T09:07:24.163Z,19.39
2019-01-06T09:08:24.576Z,19.4
2019-01-06T09:09:24.489Z,19.4
2019-01-06T09:10:24.257Z,19.4
2019-01-06T09:11:24.380Z,19.4
2019-01-06T09:12:25.085Z,19.42
2019-01-06T09:13:24.592Z,19.42
2019-01-06T09:14:24.265Z,19.42
2019-01-06T09:15:24.161Z,19.42
2019-01-06T09:16:24.201Z,19.42
2019-01-06T09:17:24.477Z,19.43
2019-01-06T09:18:24.225Z,19.45
2019-01-06T09:19:24.117Z,19.43
2019-01-06T09:20:24.185Z,19.45
2019-01-06T09:21:25.002Z,19.46
2019-01-06T09:22:24.395Z,19.46
2019-01-06T09:23:24.027Z,19.45
2019-01-06T09:24:24.082Z,19.47
2019-01-06T09:25:23.987Z,19.5
2019-01-06T09:26:24.454Z,19.49
2019-01-06T09:27:24.269Z,19.47
2019-01-06T09:28:24.170Z,19.5
2019-01-06T09:29:24.287Z,19.52
2019-01-06T09:30:24.972Z,19.49
2019-01-06T09:31:24.285Z,19.49
2019-01-06T09:32:23.941Z,19.5
2019-01-06T09:33:24.499Z,19.5
2019-01-06T09:34:24.735Z,19.5
2019-01-06T09:35:24.094Z,19.5
2019-01-06T09:36:24.542Z,19.52
2019-01-06T09:37:24.201Z,19.53
2019-01-06T09:38:24.510Z,19.53
2019-01-06T09:39:24.460Z,19.54
2019-01-06T09:40:24.400Z,19.53
2019-01-06T09:41:24.132Z,19.53
2019-01-06T09:42:24.980Z,19.56
2019-01-06T09:43:24.275Z,19.54
2019-01-06T09:44:24.010Z,19.54
2019-01-06T09:45:24.451Z,19.52
2019-01-06T09:46:24.511Z,19.54
2019-01-06T09:47:24.308Z,19.54
2019-01-06T09:48:24.170Z,19.53
2019-01-06T09:49:24.210Z,19.54
2019-01-06T09:50:24.235Z,19.54
2019-01-06T09:51:24.185Z,19.54
2019-01-06T09:52:24.071Z,19.56
2019-01-06T09:53:24.135Z,19.57
2019-01-06T09:54:24.467Z,19.56
2019-01-06T09:55:24.029Z,19.54
2019-01-06T09:56:24.392Z,19.54
2019-01-06T09:57:24.087Z,19.58
2019-01-06T09:58:24.127Z,19.57
2019-01-06T09:59:24.189Z,19.56
2019-01-06T10:00:24.254Z,19.54
2019-01-06T10:01:24.095Z,19.57
2019-01-06T10:02:24.399Z,19.54
2019-01-06T10:03:24.266Z,19.56
2019-01-06T10:04:23.935Z,19.57
2019-01-06T10:05:24.157Z,19.56
2019-01-06T10:06:24.558Z,19.53
2019-01-06T10:07:24.367Z,19.54
2019-01-06T10:08:24.284Z,19.53
2019-01-06T10:09:23.921Z,19.56
2019-01-06T10:10:24.918Z,19.52
2019-01-06T10:11:23.936Z,19.53
2019-01-06T10:12:24.004Z,19.53
2019-01-06T10:13:24.168Z,19.52
2019-01-06T10:14:24.075Z,19.5
2019-01-06T10:15:24.451Z,19.52
2019-01-06T10:16:24.038Z,19.52
2019-01-06T10:17:24.096Z,19.5
2019-01-06T10:18:24.387Z,19.53
2019-01-06T10:19:23.995Z,19.52
2019-01-06T10:20:24.225Z,19.5
2019-01-06T10:21:24.331Z,19.5
2019-01-06T10:22:24.501Z,19.52
2019-01-06T10:23:24.269Z,19.52
2019-01-06T10:24:24.736Z,19.52
2019-01-06T10:25:24.133Z,19.52
2019-01-06T10:26:23.949Z,19.52
2019-01-06T10:27:24.511Z,19.49
2019-01-06T10:28:24.394Z,19.5
2019-01-06T10:29:24.693Z,19.52
2019-01-06T10:30:24.207Z,19.5
2019-01-06T10:31:26.818Z,19.5
2019-01-06T10:32:24.616Z,19.5
2019-01-06T10:33:24.120Z,19.5
2019-01-06T10:34:24.108Z,19.52
2019-01-06T10:35:24.406Z,19.52
2019-01-06T10:36:24.442Z,19.49
2019-01-06T10:37:24.111Z,19.5
2019-01-06T10:38:24.484Z,19.49
2019-01-06T10:39:25.358Z,19.5
2019-01-06T10:40:24.792Z,19.52
2019-01-06T10:41:24.963Z,19.54
2019-01-06T10:42:24.068Z,19.56
2019-01-06T10:43:23.913Z,19.54
2019-01-06T10:44:24.311Z,19.57
2019-01-06T10:45:25.032Z,19.57
2019-01-06T10:46:24.429Z,19.58
2019-01-06T10:47:24.033Z,19.63
2019-01-06T10:48:24.253Z,19.6
2019-01-06T10:49:24.612Z,19.61
2019-01-06T10:50:24.259Z,19.63
2019-01-06T10:51:24.722Z,19.63
2019-01-06T10:52:24.025Z,19.61
2019-01-06T10:53:24.878Z,19.63
2019-01-06T10:54:24.205Z,19.61
2019-01-06T10:55:24.104Z,19.65
2019-01-06T10:56:24.124Z,19.65
2019-01-06T10:57:24.659Z,19.65
2019-01-06T10:58:24.384Z,19.71
2019-01-06T10:59:24.091Z,19.68
2019-01-06T11:00:24.462Z,19.7
2019-01-06T11:01:24.976Z,19.73
2019-01-06T11:02:25.926Z,19.74
2019-01-06T11:03:24.926Z,19.71
2019-01-06T11:04:24.989Z,19.73
2019-01-06T11:05:25.227Z,19.74
2019-01-06T11:06:26.255Z,19.75
2019-01-06T11:07:24.306Z,19.75
2019-01-06T11:08:25.048Z,19.75
2019-01-06T11:09:24.792Z,19.74
2019-01-06T11:10:25.051Z,19.75
2019-01-06T11:11:24.870Z,19.77
2019-01-06T11:12:26.005Z,19.77
2019-01-06T11:13:25.557Z,19.78
2019-01-06T11:14:25.928Z,19.77
2019-01-06T11:15:24.458Z,19.8
2019-01-06T11:16:25.721Z,19.78
2019-01-06T11:17:25.276Z,19.8
2019-01-06T11:18:24.351Z,19.8
2019-01-06T11:19:25.133Z,19.8
2019-01-06T11:20:26.374Z,19.8
2019-01-06T11:21:25.710Z,19.84
2019-01-06T11:22:25.996Z,19.82
2019-01-06T11:23:24.803Z,19.84
2019-01-06T11:24:25.683Z,19.85
2019-01-06T11:25:25.182Z,19.84
2019-01-06T11:26:25.855Z,19.84
2019-01-06T11:27:27.380Z,19.85
2019-01-06T11:28:25.421Z,19.84
2019-01-06T11:29:25.832Z,19.86
2019-01-06T11:30:25.023Z,19.85
2019-01-06T11:31:26.601Z,19.86
2019-01-06T11:32:24.763Z,19.86
2019-01-06T11:33:25.338Z,19.86
2019-01-06T11:34:27.095Z,19.88
2019-01-06T11:35:25.672Z,19.88
2019-01-06T11:36:25.105Z,19.88
2019-01-06T11:37:25.801Z,19.86
2019-01-06T11:38:25.613Z,19.89
2019-01-06T11:39:24.567Z,19.86
2019-01-06T11:40:25.685Z,19.91
2019-01-06T11:41:24.625Z,19.89
2019-01-06T11:42:25.717Z,19.91
2019-01-06T11:43:25.537Z,19.92
2019-01-06T11:44:24.533Z,19.93
2019-01-06T11:45:25.008Z,19.92
2019-01-06T11:46:25.069Z,19.93
2019-01-06T11:47:25.781Z,19.96
2019-01-06T11:48:24.490Z,19.96
2019-01-06T11:49:25.272Z,19.95
2019-01-06T11:50:24.333Z,19.95
2019-01-06T11:51:25.178Z,19.98
2019-01-06T11:52:25.527Z,19.98
2019-01-06T11:53:26.793Z,19.99
2019-01-06T11:54:25.602Z,19.99
2019-01-06T11:55:25.274Z,20.04
2019-01-06T11:56:25.678Z,20.05
2019-01-06T11:57:25.278Z,20.04
2019-01-06T11:58:25.236Z,20.07
2019-01-06T11:59:25.073Z,20.05
2019-01-06T12:00:25.000Z,20.08
2019-01-06T12:01:25.874Z,20.07
2019-01-06T12:02:25.747Z,20.07
2019-01-06T12:03:25.707Z,20.07
2019-01-06T12:04:23.974Z,20.08
2019-01-06T12:05:24.555Z,20.09
2019-01-06T12:06:24.214Z,20.07
2019-01-06T12:07:23.902Z,20.08
2019-01-06T12:08:24.254Z,20.08
2019-01-06T12:09:24.476Z,20.08
2019-01-06T12:10:24.007Z,20.07
2019-01-06T12:11:24.007Z,20.07
2019-01-06T12:12:24.472Z,20.05
2019-01-06T12:13:24.173Z,20.04
2019-01-06T12:14:24.008Z,20.04
2019-01-06T12:15:24.341Z,20.04
2019-01-06T12:16:24.187Z,20.01
2019-01-06T12:17:23.963Z,20.01
2019-01-06T12:18:24.232Z,19.98
2019-01-06T12:19:24.322Z,19.98
2019-01-06T12:20:24.177Z,19.99
2019-01-06T12:21:24.062Z,19.96
2019-01-06T12:22:24.259Z,19.96
2019-01-06T12:23:24.469Z,19.98
2019-01-06T12:24:23.996Z,19.96
2019-01-06T12:25:24.424Z,19.95
2019-01-06T12:26:24.307Z,19.96
2019-01-06T12:27:24.932Z,19.96
2019-01-06T12:28:25.051Z,19.93
2019-01-06T12:29:24.521Z,19.95
2019-01-06T12:30:24.438Z,19.95
2019-01-06T12:31:24.534Z,19.96
2019-01-06T12:32:23.922Z,19.99
2019-01-06T12:33:24.187Z,19.99
2019-01-06T12:34:24.625Z,19.98
2019-01-06T12:35:24.367Z,20.01
2019-01-06T12:36:24.115Z,20.01
2019-01-06T12:37:23.904Z,20.01
2019-01-06T12:38:25.072Z,20.02
2019-01-06T12:39:24.632Z,20.04
2019-01-06T12:40:24.492Z,20.04
2019-01-06T12:41:24.180Z,20.02
2019-01-06T12:42:23.963Z,20.02
2019-01-06T12:43:24.696Z,20.04
2019-01-06T12:44:23.985Z,19.99
2019-01-06T12:45:24.235Z,20.02
2019-01-06T12:46:23.952Z,20.01
2019-01-06T12:47:24.185Z,20.04
2019-01-06T12:48:24.263Z,20.02
2019-01-06T12:49:24.040Z,20.01
2019-01-06T12:50:23.955Z,20.02
2019-01-06T12:51:25.020Z,20.01
2019-01-06T12:52:24.048Z,20.01
2019-01-06T12:53:24.458Z,20.04
2019-01-06T12:54:23.897Z,20.01
2019-01-06T12:55:24.581Z,19.99
2019-01-06T12:56:24.214Z,20.01